Quick Links (Output Below):   Max & Min Temps   /   Climate Reports   /   Zone Forecasts
River Forecasts   /   Forestry Forecasts   /   Aviation Forecasts   /   Radars   /   Features

Terminal Aerodrome Forecast (Little Rock)

Pick a Site:
Arkadelphia | El Dorado | Fayetteville | Fort Smith | Harrison | Highfill | Hot Springs | Jonesboro
Little Rock | Monticello | Mountain Home | Pine Bluff | Texarkana

KLIT 300520Z 3006/0106 02005KT P6SM OVC006
      TEMPO 3006/3010 4SM -RA BR OVC004
     FM301000 04004KT 4SM -RA BR OVC006
     FM301500 14003KT 5SM -RA BR OVC005
     FM302200 22005KT 5SM BR OVC015=

 Latest METARs (Observations) 
How to Decode METARs
09Z KLIT 300853Z 08004KT 7SM BKN006 OVC011 08/07 A3006 RMK AO2 RAE47
         SLP182 P0001 60004 T00780067 58011 $
08Z KLIT 300753Z 08004KT 7SM -RA BKN006 OVC020 08/07 A3007 RMK AO2
         SLP186 P0002 T00780067 $
07Z KLIT 300653Z 36005KT 7SM -RA OVC006 08/07 A3010 RMK AO2 SLP197
         P0001 T00780067 $
06Z KLIT 300553Z 07004KT 7SM -RA OVC006 08/07 A3009 RMK AO2 RAB23
         SLP193 P0000 60002 T00780067 10083 20078 400890072 58018
05Z KLIT 300453Z 03006KT 10SM OVC008 08/07 A3013 RMK AO2 SLP207
         T00830067 $
04Z KLIT 300353Z 01007KT 10SM BKN006 OVC022 08/07 A3013 RMK AO2
         RAE0259DZB04E27 SLP207 P0000 T00830067 $
03Z KLIT 300253Z 01008KT 2SM -RA BR SCT006 OVC013 08/07 A3014 RMK AO2
         DZE0157RAB46 SLP211 P0000 60002 T00830072 53000 $
02Z KLIT 300153Z 35003KT 10SM -DZ OVC009 08/07 A3015 RMK AO2
         RAE52DZB52 SLP211 P0001 T00830072 $
01Z KLIT 300053Z 12006KT 10SM -RA FEW006 SCT011 OVC130 08/07 A3009 RMK
         AO2 DZB44E47 SLP191 P0001 T00830072 $
00Z KLIT 292353Z 12003KT 7SM -RA BKN011 OVC085 08/07 A3014 RMK AO2
         SLP211 P0007 60035 T00830072 10089 20083 53005 $
***** Today's Observations (Above) *****

Back to Main Page

USA.gov is the U.S. government's official web portal to all federal, state and local government web resources and services.